sensor_id;sensor_type;location;lat;lon;timestamp;P1;durP1;ratioP1;P2;durP2;ratioP2
33413;SDS011;60055;41.884;12.534;2023-04-06T00:01:19;18.88;;;11.75;;
33413;SDS011;60055;41.884;12.534;2023-04-06T00:03:45;18.63;;;11.10;;
33413;SDS011;60055;41.884;12.534;2023-04-06T00:06:11;19.98;;;11.10;;
33413;SDS011;60055;41.884;12.534;2023-04-06T00:08:39;18.35;;;10.25;;
33413;SDS011;60055;41.884;12.534;2023-04-06T00:11:04;17.88;;;10.70;;
33413;SDS011;60055;41.884;12.534;2023-04-06T00:13:30;14.80;;;9.73;;
33413;SDS011;60055;41.884;12.534;2023-04-06T00:15:56;15.32;;;9.38;;
33413;SDS011;60055;41.884;12.534;2023-04-06T00:18:22;14.75;;;8.85;;
33413;SDS011;60055;41.884;12.534;2023-04-06T00:20:48;16.10;;;8.95;;
33413;SDS011;60055;41.884;12.534;2023-04-06T00:23:16;17.17;;;8.75;;
33413;SDS011;60055;41.884;12.534;2023-04-06T00:25:43;16.15;;;8.43;;
33413;SDS011;60055;41.884;12.534;2023-04-06T00:28:10;19.05;;;9.60;;
33413;SDS011;60055;41.884;12.534;2023-04-06T00:30:40;14.10;;;8.85;;
33413;SDS011;60055;41.884;12.534;2023-04-06T00:33:06;19.60;;;8.95;;
33413;SDS011;60055;41.884;12.534;2023-04-06T00:35:33;20.38;;;8.45;;
33413;SDS011;60055;41.884;12.534;2023-04-06T00:37:59;12.90;;;8.45;;
33413;SDS011;60055;41.884;12.534;2023-04-06T00:40:25;14.20;;;8.57;;
33413;SDS011;60055;41.884;12.534;2023-04-06T00:42:55;13.00;;;8.10;;
33413;SDS011;60055;41.884;12.534;2023-04-06T00:45:25;14.98;;;7.93;;
33413;SDS011;60055;41.884;12.534;2023-04-06T00:47:51;12.55;;;7.45;;
33413;SDS011;60055;41.884;12.534;2023-04-06T00:50:17;13.15;;;8.25;;
33413;SDS011;60055;41.884;12.534;2023-04-06T00:52:44;13.20;;;7.85;;
33413;SDS011;60055;41.884;12.534;2023-04-06T00:55:10;15.05;;;8.25;;
33413;SDS011;60055;41.884;12.534;2023-04-06T00:57:37;15.07;;;7.82;;
33413;SDS011;60055;41.884;12.534;2023-04-06T01:00:06;17.23;;;8.38;;
33413;SDS011;60055;41.884;12.534;2023-04-06T01:02:32;11.05;;;7.80;;
33413;SDS011;60055;41.884;12.534;2023-04-06T01:04:57;13.82;;;8.10;;
33413;SDS011;60055;41.884;12.534;2023-04-06T01:07:27;14.65;;;7.93;;
33413;SDS011;60055;41.884;12.534;2023-04-06T01:09:54;15.63;;;7.57;;
33413;SDS011;60055;41.884;12.534;2023-04-06T01:12:19;17.40;;;7.35;;
33413;SDS011;60055;41.884;12.534;2023-04-06T01:14:45;13.73;;;7.65;;
33413;SDS011;60055;41.884;12.534;2023-04-06T01:17:12;13.73;;;7.57;;
33413;SDS011;60055;41.884;12.534;2023-04-06T01:19:38;13.98;;;7.43;;
33413;SDS011;60055;41.884;12.534;2023-04-06T01:22:05;12.27;;;7.30;;
33413;SDS011;60055;41.884;12.534;2023-04-06T01:24:32;19.10;;;7.70;;
33413;SDS011;60055;41.884;12.534;2023-04-06T01:26:59;16.48;;;7.78;;
33413;SDS011;60055;41.884;12.534;2023-04-06T01:29:28;13.48;;;7.38;;
33413;SDS011;60055;41.884;12.534;2023-04-06T01:31:57;14.82;;;7.82;;
33413;SDS011;60055;41.884;12.534;2023-04-06T01:34:22;15.80;;;7.80;;
33413;SDS011;60055;41.884;12.534;2023-04-06T01:36:47;14.20;;;7.93;;
33413;SDS011;60055;41.884;12.534;2023-04-06T01:39:13;13.00;;;7.45;;
33413;SDS011;60055;41.884;12.534;2023-04-06T01:41:39;14.82;;;7.30;;
33413;SDS011;60055;41.884;12.534;2023-04-06T01:44:04;10.02;;;7.38;;
33413;SDS011;60055;41.884;12.534;2023-04-06T01:46:31;17.17;;;7.90;;
33413;SDS011;60055;41.884;12.534;2023-04-06T01:48:56;12.27;;;7.40;;
33413;SDS011;60055;41.884;12.534;2023-04-06T01:51:23;16.38;;;8.55;;
33413;SDS011;60055;41.884;12.534;2023-04-06T01:53:51;16.98;;;7.75;;
33413;SDS011;60055;41.884;12.534;2023-04-06T01:56:17;13.45;;;7.90;;
33413;SDS011;60055;41.884;12.534;2023-04-06T01:58:43;15.40;;;7.43;;
33413;SDS011;60055;41.884;12.534;2023-04-06T02:01:08;12.43;;;7.28;;
33413;SDS011;60055;41.884;12.534;2023-04-06T02:03:36;15.68;;;7.63;;
33413;SDS011;60055;41.884;12.534;2023-04-06T02:06:03;13.50;;;7.25;;
33413;SDS011;60055;41.884;12.534;2023-04-06T02:08:30;13.88;;;8.05;;
33413;SDS011;60055;41.884;12.534;2023-04-06T02:10:57;14.30;;;7.65;;
33413;SDS011;60055;41.884;12.534;2023-04-06T02:13:25;17.13;;;7.78;;
33413;SDS011;60055;41.884;12.534;2023-04-06T02:15:52;14.65;;;7.78;;
33413;SDS011;60055;41.884;12.534;2023-04-06T02:18:21;14.38;;;8.00;;
33413;SDS011;60055;41.884;12.534;2023-04-06T02:20:49;13.75;;;8.07;;
33413;SDS011;60055;41.884;12.534;2023-04-06T02:23:15;12.77;;;7.63;;
33413;SDS011;60055;41.884;12.534;2023-04-06T02:25:41;12.93;;;7.28;;
33413;SDS011;60055;41.884;12.534;2023-04-06T02:28:07;14.98;;;7.57;;
33413;SDS011;60055;41.884;12.534;2023-04-06T02:30:34;16.98;;;7.95;;
33413;SDS011;60055;41.884;12.534;2023-04-06T02:33:01;17.73;;;8.50;;
33413;SDS011;60055;41.884;12.534;2023-04-06T02:35:28;14.25;;;7.97;;
33413;SDS011;60055;41.884;12.534;2023-04-06T02:37:55;13.45;;;8.02;;
33413;SDS011;60055;41.884;12.534;2023-04-06T02:40:24;14.88;;;8.88;;
33413;SDS011;60055;41.884;12.534;2023-04-06T02:42:50;12.73;;;8.05;;
33413;SDS011;60055;41.884;12.534;2023-04-06T02:45:15;13.88;;;7.95;;
33413;SDS011;60055;41.884;12.534;2023-04-06T02:47:44;14.00;;;7.40;;
33413;SDS011;60055;41.884;12.534;2023-04-06T02:50:13;12.20;;;8.07;;
33413;SDS011;60055;41.884;12.534;2023-04-06T02:52:39;12.45;;;8.20;;
33413;SDS011;60055;41.884;12.534;2023-04-06T02:55:08;14.77;;;8.52;;
33413;SDS011;60055;41.884;12.534;2023-04-06T02:57:34;13.20;;;7.57;;
33413;SDS011;60055;41.884;12.534;2023-04-06T03:00:00;16.27;;;8.32;;
33413;SDS011;60055;41.884;12.534;2023-04-06T03:02:29;13.55;;;8.27;;
33413;SDS011;60055;41.884;12.534;2023-04-06T03:04:59;12.30;;;7.95;;
33413;SDS011;60055;41.884;12.534;2023-04-06T03:07:24;12.38;;;8.38;;
33413;SDS011;60055;41.884;12.534;2023-04-06T03:09:50;14.88;;;8.50;;
33413;SDS011;60055;41.884;12.534;2023-04-06T03:12:15;16.48;;;8.43;;
33413;SDS011;60055;41.884;12.534;2023-04-06T03:14:44;17.92;;;8.82;;
33413;SDS011;60055;41.884;12.534;2023-04-06T03:17:10;16.33;;;8.90;;
33413;SDS011;60055;41.884;12.534;2023-04-06T03:19:35;19.02;;;9.13;;
33413;SDS011;60055;41.884;12.534;2023-04-06T03:22:01;19.83;;;8.25;;
33413;SDS011;60055;41.884;12.534;2023-04-06T03:24:27;15.02;;;8.50;;
33413;SDS011;60055;41.884;12.534;2023-04-06T03:26:52;15.82;;;8.70;;
33413;SDS011;60055;41.884;12.534;2023-04-06T03:29:18;18.20;;;8.55;;
33413;SDS011;60055;41.884;12.534;2023-04-06T03:31:43;16.92;;;8.73;;
33413;SDS011;60055;41.884;12.534;2023-04-06T03:34:08;20.77;;;8.55;;
33413;SDS011;60055;41.884;12.534;2023-04-06T03:36:34;14.73;;;8.80;;
33413;SDS011;60055;41.884;12.534;2023-04-06T03:39:00;16.40;;;8.50;;
33413;SDS011;60055;41.884;12.534;2023-04-06T03:41:25;16.55;;;8.38;;
33413;SDS011;60055;41.884;12.534;2023-04-06T03:43:51;19.90;;;9.35;;
33413;SDS011;60055;41.884;12.534;2023-04-06T03:46:17;15.48;;;8.40;;
33413;SDS011;60055;41.884;12.534;2023-04-06T03:48:42;15.38;;;8.82;;
33413;SDS011;60055;41.884;12.534;2023-04-06T03:51:08;16.33;;;8.43;;
33413;SDS011;60055;41.884;12.534;2023-04-06T03:53:33;14.95;;;8.95;;
33413;SDS011;60055;41.884;12.534;2023-04-06T03:55:59;14.90;;;8.52;;
33413;SDS011;60055;41.884;12.534;2023-04-06T03:58:24;13.68;;;7.95;;
33413;SDS011;60055;41.884;12.534;2023-04-06T04:00:50;15.45;;;7.97;;
33413;SDS011;60055;41.884;12.534;2023-04-06T04:03:15;14.70;;;8.68;;
33413;SDS011;60055;41.884;12.534;2023-04-06T04:05:41;16.40;;;8.57;;
33413;SDS011;60055;41.884;12.534;2023-04-06T04:08:10;16.05;;;8.93;;
33413;SDS011;60055;41.884;12.534;2023-04-06T04:10:35;14.82;;;9.25;;
33413;SDS011;60055;41.884;12.534;2023-04-06T04:13:00;13.73;;;8.38;;
33413;SDS011;60055;41.884;12.534;2023-04-06T04:15:26;12.82;;;8.02;;
33413;SDS011;60055;41.884;12.534;2023-04-06T04:17:51;17.35;;;8.35;;
33413;SDS011;60055;41.884;12.534;2023-04-06T04:20:17;13.80;;;8.55;;
33413;SDS011;60055;41.884;12.534;2023-04-06T04:22:42;15.02;;;8.32;;
33413;SDS011;60055;41.884;12.534;2023-04-06T04:25:08;12.93;;;8.65;;
33413;SDS011;60055;41.884;12.534;2023-04-06T04:27:34;14.43;;;8.80;;
33413;SDS011;60055;41.884;12.534;2023-04-06T04:30:00;15.68;;;8.52;;
33413;SDS011;60055;41.884;12.534;2023-04-06T04:32:25;16.23;;;9.10;;
33413;SDS011;60055;41.884;12.534;2023-04-06T04:34:52;18.80;;;8.30;;
33413;SDS011;60055;41.884;12.534;2023-04-06T04:37:18;15.52;;;9.00;;
33413;SDS011;60055;41.884;12.534;2023-04-06T04:39:44;16.92;;;8.98;;
33413;SDS011;60055;41.884;12.534;2023-04-06T04:42:10;18.75;;;10.02;;
33413;SDS011;60055;41.884;12.534;2023-04-06T04:44:35;15.07;;;9.52;;
33413;SDS011;60055;41.884;12.534;2023-04-06T04:47:01;16.67;;;8.93;;
33413;SDS011;60055;41.884;12.534;2023-04-06T04:49:26;14.90;;;8.80;;
33413;SDS011;60055;41.884;12.534;2023-04-06T04:51:52;19.63;;;8.85;;
33413;SDS011;60055;41.884;12.534;2023-04-06T04:54:17;18.33;;;8.98;;
33413;SDS011;60055;41.884;12.534;2023-04-06T04:56:44;21.55;;;10.80;;
33413;SDS011;60055;41.884;12.534;2023-04-06T04:59:10;19.60;;;9.32;;
33413;SDS011;60055;41.884;12.534;2023-04-06T05:01:36;20.05;;;9.50;;
33413;SDS011;60055;41.884;12.534;2023-04-06T05:04:01;17.77;;;9.15;;
33413;SDS011;60055;41.884;12.534;2023-04-06T05:06:26;19.27;;;9.73;;
33413;SDS011;60055;41.884;12.534;2023-04-06T05:08:52;17.17;;;9.65;;
33413;SDS011;60055;41.884;12.534;2023-04-06T05:11:17;18.27;;;9.15;;
33413;SDS011;60055;41.884;12.534;2023-04-06T05:13:43;15.40;;;8.98;;
33413;SDS011;60055;41.884;12.534;2023-04-06T05:16:08;21.27;;;9.38;;
33413;SDS011;60055;41.884;12.534;2023-04-06T05:18:34;18.17;;;9.32;;
33413;SDS011;60055;41.884;12.534;2023-04-06T05:21:00;17.85;;;8.48;;
33413;SDS011;60055;41.884;12.534;2023-04-06T05:23:25;15.90;;;9.65;;
33413;SDS011;60055;41.884;12.534;2023-04-06T05:25:51;14.55;;;8.40;;
33413;SDS011;60055;41.884;12.534;2023-04-06T05:28:16;14.88;;;8.63;;
33413;SDS011;60055;41.884;12.534;2023-04-06T05:30:43;14.63;;;8.45;;
33413;SDS011;60055;41.884;12.534;2023-04-06T05:33:09;18.02;;;8.05;;
33413;SDS011;60055;41.884;12.534;2023-04-06T05:35:36;20.05;;;9.10;;
33413;SDS011;60055;41.884;12.534;2023-04-06T05:38:01;14.63;;;8.52;;
33413;SDS011;60055;41.884;12.534;2023-04-06T05:40:27;16.85;;;8.25;;
33413;SDS011;60055;41.884;12.534;2023-04-06T05:42:52;16.55;;;9.10;;
33413;SDS011;60055;41.884;12.534;2023-04-06T05:45:18;20.13;;;9.23;;
33413;SDS011;60055;41.884;12.534;2023-04-06T05:47:45;16.70;;;8.93;;
33413;SDS011;60055;41.884;12.534;2023-04-06T05:50:11;14.55;;;7.85;;
33413;SDS011;60055;41.884;12.534;2023-04-06T05:52:37;15.30;;;8.45;;
33413;SDS011;60055;41.884;12.534;2023-04-06T05:55:03;19.92;;;7.60;;
33413;SDS011;60055;41.884;12.534;2023-04-06T05:57:29;19.42;;;7.60;;
33413;SDS011;60055;41.884;12.534;2023-04-06T05:59:55;13.52;;;7.85;;
33413;SDS011;60055;41.884;12.534;2023-04-06T06:02:20;15.95;;;8.02;;
33413;SDS011;60055;41.884;12.534;2023-04-06T06:04:46;15.43;;;7.88;;
33413;SDS011;60055;41.884;12.534;2023-04-06T06:07:14;14.70;;;8.55;;
33413;SDS011;60055;41.884;12.534;2023-04-06T06:09:40;17.95;;;7.85;;
33413;SDS011;60055;41.884;12.534;2023-04-06T06:12:05;14.85;;;8.38;;
33413;SDS011;60055;41.884;12.534;2023-04-06T06:14:31;14.27;;;8.48;;
33413;SDS011;60055;41.884;12.534;2023-04-06T06:16:56;15.48;;;8.00;;
33413;SDS011;60055;41.884;12.534;2023-04-06T06:19:22;18.10;;;7.75;;
33413;SDS011;60055;41.884;12.534;2023-04-06T06:21:47;13.55;;;7.72;;
33413;SDS011;60055;41.884;12.534;2023-04-06T06:24:13;13.63;;;7.47;;
33413;SDS011;60055;41.884;12.534;2023-04-06T06:26:38;15.27;;;7.50;;
33413;SDS011;60055;41.884;12.534;2023-04-06T06:29:04;18.98;;;7.78;;
33413;SDS011;60055;41.884;12.534;2023-04-06T06:31:31;13.00;;;7.72;;
33413;SDS011;60055;41.884;12.534;2023-04-06T06:34:01;13.48;;;6.82;;
33413;SDS011;60055;41.884;12.534;2023-04-06T06:36:27;11.93;;;6.75;;
33413;SDS011;60055;41.884;12.534;2023-04-06T06:38:53;12.27;;;6.78;;
33413;SDS011;60055;41.884;12.534;2023-04-06T06:41:18;15.80;;;7.68;;
33413;SDS011;60055;41.884;12.534;2023-04-06T06:43:43;11.98;;;7.18;;
33413;SDS011;60055;41.884;12.534;2023-04-06T06:46:09;14.55;;;6.85;;
33413;SDS011;60055;41.884;12.534;2023-04-06T06:48:35;11.77;;;7.15;;
33413;SDS011;60055;41.884;12.534;2023-04-06T06:51:00;12.20;;;6.93;;
33413;SDS011;60055;41.884;12.534;2023-04-06T06:53:25;13.65;;;7.25;;
33413;SDS011;60055;41.884;12.534;2023-04-06T06:55:51;13.50;;;6.97;;
33413;SDS011;60055;41.884;12.534;2023-04-06T06:58:19;12.68;;;7.43;;
33413;SDS011;60055;41.884;12.534;2023-04-06T07:00:45;15.35;;;7.60;;
33413;SDS011;60055;41.884;12.534;2023-04-06T07:03:11;15.98;;;7.53;;
33413;SDS011;60055;41.884;12.534;2023-04-06T07:05:36;12.32;;;8.20;;
33413;SDS011;60055;41.884;12.534;2023-04-06T07:08:02;14.30;;;6.97;;
33413;SDS011;60055;41.884;12.534;2023-04-06T07:10:27;15.85;;;7.50;;
33413;SDS011;60055;41.884;12.534;2023-04-06T07:12:53;13.27;;;6.82;;
33413;SDS011;60055;41.884;12.534;2023-04-06T07:15:18;12.15;;;7.03;;
33413;SDS011;60055;41.884;12.534;2023-04-06T07:17:45;13.02;;;7.35;;
33413;SDS011;60055;41.884;12.534;2023-04-06T07:20:13;14.02;;;7.25;;
33413;SDS011;60055;41.884;12.534;2023-04-06T07:22:39;11.93;;;6.63;;
33413;SDS011;60055;41.884;12.534;2023-04-06T07:25:05;17.40;;;6.75;;
33413;SDS011;60055;41.884;12.534;2023-04-06T07:27:30;12.93;;;7.13;;
33413;SDS011;60055;41.884;12.534;2023-04-06T07:29:56;15.20;;;7.35;;
33413;SDS011;60055;41.884;12.534;2023-04-06T07:32:21;13.38;;;6.97;;
33413;SDS011;60055;41.884;12.534;2023-04-06T07:34:47;9.65;;;6.90;;
33413;SDS011;60055;41.884;12.534;2023-04-06T07:37:14;14.07;;;7.03;;
33413;SDS011;60055;41.884;12.534;2023-04-06T07:39:39;12.25;;;6.88;;
33413;SDS011;60055;41.884;12.534;2023-04-06T07:42:05;11.52;;;6.68;;
33413;SDS011;60055;41.884;12.534;2023-04-06T07:44:30;11.27;;;5.85;;
33413;SDS011;60055;41.884;12.534;2023-04-06T07:46:56;12.93;;;5.88;;
33413;SDS011;60055;41.884;12.534;2023-04-06T07:49:21;14.32;;;5.75;;
33413;SDS011;60055;41.884;12.534;2023-04-06T07:51:48;11.77;;;5.65;;
33413;SDS011;60055;41.884;12.534;2023-04-06T07:54:13;11.88;;;5.55;;
33413;SDS011;60055;41.884;12.534;2023-04-06T07:56:38;12.35;;;5.70;;
33413;SDS011;60055;41.884;12.534;2023-04-06T07:59:04;8.70;;;5.60;;
33413;SDS011;60055;41.884;12.534;2023-04-06T08:01:30;8.85;;;5.53;;
33413;SDS011;60055;41.884;12.534;2023-04-06T08:03:56;10.07;;;5.75;;
33413;SDS011;60055;41.884;12.534;2023-04-06T08:06:22;10.45;;;5.40;;
33413;SDS011;60055;41.884;12.534;2023-04-06T08:08:47;11.15;;;5.65;;
33413;SDS011;60055;41.884;12.534;2023-04-06T08:11:15;10.13;;;5.57;;
33413;SDS011;60055;41.884;12.534;2023-04-06T08:13:40;10.05;;;5.45;;
33413;SDS011;60055;41.884;12.534;2023-04-06T08:16:06;10.95;;;5.13;;
33413;SDS011;60055;41.884;12.534;2023-04-06T08:18:32;10.02;;;5.10;;
33413;SDS011;60055;41.884;12.534;2023-04-06T08:20:58;11.05;;;5.93;;
33413;SDS011;60055;41.884;12.534;2023-04-06T08:23:23;14.40;;;6.93;;
33413;SDS011;60055;41.884;12.534;2023-04-06T08:25:48;11.10;;;5.45;;
33413;SDS011;60055;41.884;12.534;2023-04-06T08:28:15;31.48;;;6.60;;
33413;SDS011;60055;41.884;12.534;2023-04-06T08:30:41;10.05;;;4.53;;
33413;SDS011;60055;41.884;12.534;2023-04-06T08:33:07;13.80;;;5.10;;
33413;SDS011;60055;41.884;12.534;2023-04-06T08:35:32;10.75;;;4.90;;
33413;SDS011;60055;41.884;12.534;2023-04-06T08:37:58;10.90;;;4.35;;
33413;SDS011;60055;41.884;12.534;2023-04-06T08:40:23;12.35;;;4.88;;
33413;SDS011;60055;41.884;12.534;2023-04-06T08:42:50;15.50;;;4.97;;
33413;SDS011;60055;41.884;12.534;2023-04-06T08:45:19;9.93;;;4.10;;
33413;SDS011;60055;41.884;12.534;2023-04-06T08:47:48;18.02;;;4.90;;
33413;SDS011;60055;41.884;12.534;2023-04-06T08:50:16;9.48;;;4.72;;
33413;SDS011;60055;41.884;12.534;2023-04-06T08:52:43;9.13;;;4.47;;
33413;SDS011;60055;41.884;12.534;2023-04-06T08:55:11;9.73;;;4.40;;
33413;SDS011;60055;41.884;12.534;2023-04-06T08:57:37;8.23;;;4.70;;
33413;SDS011;60055;41.884;12.534;2023-04-06T09:00:04;9.38;;;4.28;;
33413;SDS011;60055;41.884;12.534;2023-04-06T09:02:31;7.20;;;3.75;;
33413;SDS011;60055;41.884;12.534;2023-04-06T09:04:58;10.63;;;4.00;;
33413;SDS011;60055;41.884;12.534;2023-04-06T09:07:25;9.43;;;4.07;;
33413;SDS011;60055;41.884;12.534;2023-04-06T09:09:52;6.85;;;4.38;;
33413;SDS011;60055;41.884;12.534;2023-04-06T09:14:49;7.28;;;4.18;;
33413;SDS011;60055;41.884;12.534;2023-04-06T09:17:30;10.27;;;3.90;;
33413;SDS011;60055;41.884;12.534;2023-04-06T09:19:58;7.75;;;4.10;;
33413;SDS011;60055;41.884;12.534;2023-04-06T09:22:25;6.90;;;4.10;;
33413;SDS011;60055;41.884;12.534;2023-04-06T09:24:59;5.90;;;3.83;;
33413;SDS011;60055;41.884;12.534;2023-04-06T09:27:34;7.97;;;3.97;;
33413;SDS011;60055;41.884;12.534;2023-04-06T09:30:05;7.75;;;4.10;;
33413;SDS011;60055;41.884;12.534;2023-04-06T09:32:49;7.50;;;4.40;;
33413;SDS011;60055;41.884;12.534;2023-04-06T09:35:16;10.73;;;4.60;;
33413;SDS011;60055;41.884;12.534;2023-04-06T09:37:42;6.05;;;4.22;;
33413;SDS011;60055;41.884;12.534;2023-04-06T09:40:09;11.32;;;5.07;;
33413;SDS011;60055;41.884;12.534;2023-04-06T09:42:35;7.10;;;4.95;;
33413;SDS011;60055;41.884;12.534;2023-04-06T09:45:01;6.85;;;4.93;;
33413;SDS011;60055;41.884;12.534;2023-04-06T09:47:28;10.10;;;4.95;;
33413;SDS011;60055;41.884;12.534;2023-04-06T09:49:55;6.35;;;4.65;;
33413;SDS011;60055;41.884;12.534;2023-04-06T09:52:26;9.15;;;5.00;;
33413;SDS011;60055;41.884;12.534;2023-04-06T09:54:55;8.93;;;5.00;;
33413;SDS011;60055;41.884;12.534;2023-04-06T09:57:35;7.85;;;4.60;;
33413;SDS011;60055;41.884;12.534;2023-04-06T10:00:14;7.63;;;4.72;;
33413;SDS011;60055;41.884;12.534;2023-04-06T10:05:43;8.13;;;4.22;;
33413;SDS011;60055;41.884;12.534;2023-04-06T10:08:15;5.40;;;4.10;;
33413;SDS011;60055;41.884;12.534;2023-04-06T10:10:41;7.97;;;4.57;;
33413;SDS011;60055;41.884;12.534;2023-04-06T10:13:07;7.35;;;3.58;;
33413;SDS011;60055;41.884;12.534;2023-04-06T10:15:35;7.80;;;4.57;;
33413;SDS011;60055;41.884;12.534;2023-04-06T10:18:03;7.78;;;4.40;;
33413;SDS011;60055;41.884;12.534;2023-04-06T10:20:42;6.22;;;4.20;;
33413;SDS011;60055;41.884;12.534;2023-04-06T10:25:57;6.15;;;4.10;;
33413;SDS011;60055;41.884;12.534;2023-04-06T10:28:24;7.10;;;3.80;;
33413;SDS011;60055;41.884;12.534;2023-04-06T10:30:56;7.32;;;3.88;;
33413;SDS011;60055;41.884;12.534;2023-04-06T10:33:23;7.00;;;4.38;;
33413;SDS011;60055;41.884;12.534;2023-04-06T10:35:48;7.50;;;4.18;;
33413;SDS011;60055;41.884;12.534;2023-04-06T10:38:14;6.45;;;3.90;;
33413;SDS011;60055;41.884;12.534;2023-04-06T10:40:40;6.85;;;4.10;;
33413;SDS011;60055;41.884;12.534;2023-04-06T10:43:13;5.32;;;3.50;;
33413;SDS011;60055;41.884;12.534;2023-04-06T10:45:40;11.27;;;3.97;;
33413;SDS011;60055;41.884;12.534;2023-04-06T10:48:18;7.45;;;4.10;;
33413;SDS011;60055;41.884;12.534;2023-04-06T10:50:44;4.72;;;3.85;;
33413;SDS011;60055;41.884;12.534;2023-04-06T10:53:20;7.38;;;4.32;;
33413;SDS011;60055;41.884;12.534;2023-04-06T10:55:50;7.28;;;4.28;;
33413;SDS011;60055;41.884;12.534;2023-04-06T10:58:17;7.65;;;4.65;;
33413;SDS011;60055;41.884;12.534;2023-04-06T11:00:46;9.45;;;4.30;;
33413;SDS011;60055;41.884;12.534;2023-04-06T11:03:13;7.65;;;3.85;;
33413;SDS011;60055;41.884;12.534;2023-04-06T11:05:43;17.58;;;5.13;;
33413;SDS011;60055;41.884;12.534;2023-04-06T11:10:50;6.88;;;3.83;;
33413;SDS011;60055;41.884;12.534;2023-04-06T11:13:15;6.88;;;3.38;;
33413;SDS011;60055;41.884;12.534;2023-04-06T11:15:41;7.07;;;3.47;;
33413;SDS011;60055;41.884;12.534;2023-04-06T11:18:06;6.43;;;3.50;;
33413;SDS011;60055;41.884;12.534;2023-04-06T11:20:32;7.35;;;3.30;;
33413;SDS011;60055;41.884;12.534;2023-04-06T11:22:57;7.47;;;3.53;;
33413;SDS011;60055;41.884;12.534;2023-04-06T11:25:26;6.00;;;3.33;;
33413;SDS011;60055;41.884;12.534;2023-04-06T11:27:57;9.30;;;4.22;;
33413;SDS011;60055;41.884;12.534;2023-04-06T11:30:22;5.43;;;3.17;;
33413;SDS011;60055;41.884;12.534;2023-04-06T11:32:48;7.32;;;3.63;;
33413;SDS011;60055;41.884;12.534;2023-04-06T11:35:20;7.07;;;3.35;;
33413;SDS011;60055;41.884;12.534;2023-04-06T11:37:50;5.10;;;3.08;;
33413;SDS011;60055;41.884;12.534;2023-04-06T11:40:22;4.35;;;3.10;;
33413;SDS011;60055;41.884;12.534;2023-04-06T11:42:52;10.43;;;3.75;;
33413;SDS011;60055;41.884;12.534;2023-04-06T11:45:19;10.60;;;3.63;;
33413;SDS011;60055;41.884;12.534;2023-04-06T11:47:44;7.90;;;4.07;;
33413;SDS011;60055;41.884;12.534;2023-04-06T11:50:10;8.75;;;3.97;;
33413;SDS011;60055;41.884;12.534;2023-04-06T11:52:37;6.28;;;4.40;;
33413;SDS011;60055;41.884;12.534;2023-04-06T11:55:11;6.18;;;3.45;;
33413;SDS011;60055;41.884;12.534;2023-04-06T11:57:44;6.72;;;3.15;;
33413;SDS011;60055;41.884;12.534;2023-04-06T12:00:10;7.07;;;3.42;;
33413;SDS011;60055;41.884;12.534;2023-04-06T12:02:37;6.43;;;3.50;;
33413;SDS011;60055;41.884;12.534;2023-04-06T12:05:03;5.90;;;2.95;;
33413;SDS011;60055;41.884;12.534;2023-04-06T12:07:30;7.18;;;4.55;;
33413;SDS011;60055;41.884;12.534;2023-04-06T12:09:55;4.00;;;2.90;;
33413;SDS011;60055;41.884;12.534;2023-04-06T12:12:21;4.53;;;2.78;;
33413;SDS011;60055;41.884;12.534;2023-04-06T12:14:46;5.25;;;3.33;;
33413;SDS011;60055;41.884;12.534;2023-04-06T12:17:12;6.28;;;4.20;;
33413;SDS011;60055;41.884;12.534;2023-04-06T12:19:37;6.80;;;3.33;;
33413;SDS011;60055;41.884;12.534;2023-04-06T12:22:03;8.70;;;3.50;;
33413;SDS011;60055;41.884;12.534;2023-04-06T12:24:29;6.15;;;3.47;;
33413;SDS011;60055;41.884;12.534;2023-04-06T12:26:56;11.27;;;3.50;;
33413;SDS011;60055;41.884;12.534;2023-04-06T12:29:24;6.40;;;3.25;;
33413;SDS011;60055;41.884;12.534;2023-04-06T12:31:51;6.53;;;3.40;;
33413;SDS011;60055;41.884;12.534;2023-04-06T12:34:18;8.70;;;3.88;;
33413;SDS011;60055;41.884;12.534;2023-04-06T12:36:43;5.40;;;3.50;;
33413;SDS011;60055;41.884;12.534;2023-04-06T12:39:09;6.50;;;3.35;;
33413;SDS011;60055;41.884;12.534;2023-04-06T12:41:34;6.78;;;3.40;;
33413;SDS011;60055;41.884;12.534;2023-04-06T12:44:00;7.80;;;3.63;;
33413;SDS011;60055;41.884;12.534;2023-04-06T12:46:31;7.85;;;3.95;;
33413;SDS011;60055;41.884;12.534;2023-04-06T12:49:01;5.88;;;2.92;;
33413;SDS011;60055;41.884;12.534;2023-04-06T12:51:28;4.88;;;2.80;;
33413;SDS011;60055;41.884;12.534;2023-04-06T12:53:56;5.47;;;3.05;;
33413;SDS011;60055;41.884;12.534;2023-04-06T12:56:22;7.93;;;3.40;;
33413;SDS011;60055;41.884;12.534;2023-04-06T12:58:52;5.47;;;3.60;;
33413;SDS011;60055;41.884;12.534;2023-04-06T13:01:17;6.57;;;3.15;;
33413;SDS011;60055;41.884;12.534;2023-04-06T13:03:46;6.15;;;3.13;;
33413;SDS011;60055;41.884;12.534;2023-04-06T13:06:11;5.60;;;3.17;;
33413;SDS011;60055;41.884;12.534;2023-04-06T13:08:38;6.85;;;3.45;;
33413;SDS011;60055;41.884;12.534;2023-04-06T13:11:04;7.32;;;3.08;;
33413;SDS011;60055;41.884;12.534;2023-04-06T13:13:30;5.57;;;3.40;;
33413;SDS011;60055;41.884;12.534;2023-04-06T13:16:02;5.68;;;3.25;;
33413;SDS011;60055;41.884;12.534;2023-04-06T13:18:32;5.60;;;3.28;;
33413;SDS011;60055;41.884;12.534;2023-04-06T13:20:59;10.77;;;3.28;;
33413;SDS011;60055;41.884;12.534;2023-04-06T13:23:24;6.82;;;3.30;;
33413;SDS011;60055;41.884;12.534;2023-04-06T13:25:57;6.40;;;3.10;;
33413;SDS011;60055;41.884;12.534;2023-04-06T13:28:23;8.63;;;3.13;;
33413;SDS011;60055;41.884;12.534;2023-04-06T13:31:10;8.77;;;3.50;;
33413;SDS011;60055;41.884;12.534;2023-04-06T13:33:37;8.38;;;3.70;;
33413;SDS011;60055;41.884;12.534;2023-04-06T13:36:03;6.15;;;2.95;;
33413;SDS011;60055;41.884;12.534;2023-04-06T13:38:29;4.97;;;2.97;;
33413;SDS011;60055;41.884;12.534;2023-04-06T13:40:55;7.20;;;3.38;;
33413;SDS011;60055;41.884;12.534;2023-04-06T13:43:21;5.85;;;3.05;;
33413;SDS011;60055;41.884;12.534;2023-04-06T13:45:51;4.55;;;2.40;;
33413;SDS011;60055;41.884;12.534;2023-04-06T13:48:17;5.85;;;2.55;;
33413;SDS011;60055;41.884;12.534;2023-04-06T13:50:44;4.72;;;2.83;;
33413;SDS011;60055;41.884;12.534;2023-04-06T13:53:10;5.72;;;2.65;;
33413;SDS011;60055;41.884;12.534;2023-04-06T13:55:36;5.80;;;2.53;;
33413;SDS011;60055;41.884;12.534;2023-04-06T13:58:01;8.95;;;4.18;;
33413;SDS011;60055;41.884;12.534;2023-04-06T14:00:26;6.18;;;2.50;;
33413;SDS011;60055;41.884;12.534;2023-04-06T14:02:53;6.70;;;2.63;;
33413;SDS011;60055;41.884;12.534;2023-04-06T14:05:20;6.25;;;3.05;;
33413;SDS011;60055;41.884;12.534;2023-04-06T14:07:46;7.18;;;2.72;;
33413;SDS011;60055;41.884;12.534;2023-04-06T14:10:14;6.80;;;3.00;;
33413;SDS011;60055;41.884;12.534;2023-04-06T14:12:43;7.43;;;2.95;;
33413;SDS011;60055;41.884;12.534;2023-04-06T14:15:10;7.65;;;3.35;;
33413;SDS011;60055;41.884;12.534;2023-04-06T14:17:36;9.20;;;3.38;;
33413;SDS011;60055;41.884;12.534;2023-04-06T14:20:02;6.78;;;3.00;;
33413;SDS011;60055;41.884;12.534;2023-04-06T14:22:28;8.45;;;2.92;;
33413;SDS011;60055;41.884;12.534;2023-04-06T14:24:53;8.35;;;3.53;;
33413;SDS011;60055;41.884;12.534;2023-04-06T14:27:18;10.52;;;3.50;;
33413;SDS011;60055;41.884;12.534;2023-04-06T14:29:46;8.73;;;3.33;;
33413;SDS011;60055;41.884;12.534;2023-04-06T14:32:12;11.85;;;3.72;;
33413;SDS011;60055;41.884;12.534;2023-04-06T14:34:37;12.15;;;4.07;;